Main page
METAR-TAF:

METAR-TAF

Airports :

Maharana Pratap Airport

Udaipur, India

latitude: 24-37-04N, longitude: 73-53-46E, elevation: 513 m

Current weather observation

The report was made 8 hours and 1 minutes ago, at 13:00 UTC
Calm wind
Temperature 24°C
Humidity 47%
Pressure 1016 hPa
Visibility: 5000 m
haze

METAR: VAUD 281300Z 00000KT 5000 HZ NSC 24/12 Q1016 BECMG3000HZ

Time: 02:31 (21:01 UTC)

Forecast

The report was made 10 hours and 1 minutes ago, at 11:00 UTC
Forecast valid from 28 at 12 UTC to 28 at 21 UTC
Wind 3 kt from variable directions
Visibility: 3000 m
haze

TAF: VAUD 281100Z 2812/2821 VRB03KT 3000 HZ NSC

Weather observations and forecasts of more than 4000 airports (METAR and TAF reports).

The available stations are represented by yellow and red dots on the map.

Hover mouse over dot to see the name of the station.

Then click to see weather observations and forecasts.

To change the map : click on the green buttons with a black cross to zoom in, on the green button with a dash to zoom out, or on the green arrows for adjacent maps.


METAR-TAF: